createdAt,value
2018-11-12T00:01:24.269Z,19.47
2018-11-12T00:03:52.697Z,15.47
2018-11-12T00:06:21.070Z,21.60
2018-11-12T00:08:49.462Z,18.17
2018-11-12T00:11:17.835Z,13.07
2018-11-12T00:13:46.229Z,16.63
2018-11-12T00:16:14.593Z,17.80
2018-11-12T00:18:42.986Z,16.03
2018-11-12T00:21:11.351Z,20.10
2018-11-12T00:23:39.747Z,19.60
2018-11-12T00:26:08.174Z,16.30
2018-11-12T00:28:36.574Z,16.30
2018-11-12T00:31:04.963Z,18.33
2018-11-12T00:33:33.363Z,14.13
2018-11-12T00:36:01.741Z,14.63
2018-11-12T00:38:30.136Z,15.90
2018-11-12T00:40:58.510Z,11.57
2018-11-12T00:43:27.013Z,13.60
2018-11-12T00:45:55.454Z,17.53
2018-11-12T00:48:23.845Z,14.97
2018-11-12T00:50:52.370Z,17.80
2018-11-12T00:53:20.760Z,22.20
2018-11-12T00:55:49.146Z,16.70
2018-11-12T00:58:17.542Z,18.13
2018-11-12T01:00:45.910Z,14.87
2018-11-12T01:03:14.320Z,17.43
2018-11-12T01:05:42.692Z,17.47
2018-11-12T01:08:11.117Z,18.40
2018-11-12T01:10:39.494Z,19.17
2018-11-12T01:13:07.910Z,21.10
2018-11-12T01:15:36.277Z,17.07
2018-11-12T01:18:04.694Z,20.53
2018-11-12T01:20:33.090Z,17.17
2018-11-12T01:23:01.465Z,21.50
2018-11-12T01:25:29.865Z,17.07
2018-11-12T01:27:58.242Z,17.50
2018-11-12T01:30:26.642Z,20.93
2018-11-12T01:32:55.019Z,15.70
2018-11-12T01:35:23.417Z,21.00
2018-11-12T01:37:51.795Z,22.30
2018-11-12T01:40:20.188Z,18.43
2018-11-12T01:42:48.582Z,20.37
2018-11-12T01:45:18.186Z,15.50
2018-11-12T01:47:47.666Z,22.83
2018-11-12T01:50:16.583Z,25.53
2018-11-12T01:52:45.546Z,29.30
2018-11-12T01:55:15.074Z,20.87
2018-11-12T01:57:43.942Z,21.03
2018-11-12T02:00:15.583Z,22.63
2018-11-12T02:02:45.422Z,19.97
2018-11-12T02:05:13.819Z,25.50
2018-11-12T02:07:42.203Z,19.73
2018-11-12T02:10:12.214Z,21.03
2018-11-12T02:12:40.986Z,19.60
2018-11-12T02:15:13.650Z,17.17
2018-11-12T02:17:42.661Z,23.60
2018-11-12T02:20:12.694Z,16.90
2018-11-12T02:22:41.566Z,22.90
2018-11-12T02:25:10.957Z,23.10
2018-11-12T02:27:39.569Z,19.83
2018-11-12T02:30:12.765Z,18.67
2018-11-12T02:32:41.145Z,24.30
2018-11-12T02:35:09.935Z,31.47
2018-11-12T02:37:38.797Z,16.20
2018-11-12T02:40:09.151Z,17.40
2018-11-12T02:42:37.545Z,16.37
2018-11-12T02:45:06.878Z,16.20
2018-11-12T02:47:35.265Z,16.90
2018-11-12T02:50:03.704Z,21.33
2018-11-12T02:52:32.086Z,18.63
2018-11-12T02:55:00.481Z,16.90
2018-11-12T02:57:28.947Z,14.40
2018-11-12T02:59:57.299Z,17.60
2018-11-12T03:02:25.677Z,18.77
2018-11-12T03:04:54.078Z,19.00
2018-11-12T03:07:22.467Z,20.13
2018-11-12T03:09:50.869Z,24.90
2018-11-12T03:12:19.242Z,26.73
2018-11-12T03:14:47.637Z,30.93
2018-11-12T03:17:16.020Z,26.03
2018-11-12T03:19:44.421Z,34.17
2018-11-12T03:22:12.796Z,21.83
2018-11-12T03:24:41.206Z,27.80
2018-11-12T03:27:09.577Z,28.53
2018-11-12T03:29:37.978Z,27.20
2018-11-12T03:32:06.558Z,28.50
2018-11-12T03:34:34.972Z,26.40
2018-11-12T03:37:03.341Z,22.07
2018-11-12T03:39:31.752Z,34.60
2018-11-12T03:42:00.157Z,37.83
2018-11-12T03:44:28.530Z,38.27
2018-11-12T03:46:57.042Z,25.90
2018-11-12T03:49:25.417Z,32.63
2018-11-12T03:51:53.813Z,28.17
2018-11-12T03:54:22.193Z,30.40
2018-11-12T03:56:50.597Z,29.93
2018-11-12T03:59:18.965Z,38.77
2018-11-12T04:01:47.369Z,26.43
2018-11-12T04:04:17.110Z,30.10
2018-11-12T04:06:46.433Z,30.43
2018-11-12T04:09:14.809Z,32.93
2018-11-12T04:11:44.531Z,27.37
2018-11-12T04:14:13.389Z,30.77
2018-11-12T04:16:43.942Z,34.87
2018-11-12T04:19:12.394Z,31.63
2018-11-12T04:21:40.813Z,28.47
2018-11-12T04:24:09.194Z,28.57
2018-11-12T04:26:37.589Z,31.07
2018-11-12T04:29:06.006Z,31.13
2018-11-12T04:31:34.403Z,43.13
2018-11-12T04:34:02.788Z,32.30
2018-11-12T04:36:31.186Z,32.90
2018-11-12T04:38:59.566Z,34.43
2018-11-12T04:41:27.989Z,30.40
2018-11-12T04:43:56.367Z,30.10
2018-11-12T04:46:24.771Z,28.17
2018-11-12T04:48:53.137Z,32.00
2018-11-12T04:51:21.541Z,27.43
2018-11-12T04:53:49.977Z,30.33
2018-11-12T04:56:18.351Z,33.93
2018-11-12T04:58:46.730Z,32.03
2018-11-12T05:01:15.149Z,29.80
2018-11-12T05:03:43.517Z,26.10
2018-11-12T05:06:11.914Z,37.97
2018-11-12T05:08:40.291Z,32.83
2018-11-12T05:11:08.733Z,36.73
2018-11-12T05:13:37.127Z,33.43
2018-11-12T05:16:06.026Z,24.77
2018-11-12T05:18:34.463Z,29.90
2018-11-12T05:21:02.919Z,29.93
2018-11-12T05:23:31.266Z,23.30
2018-11-12T05:25:59.671Z,45.60
2018-11-12T05:28:28.046Z,36.87
2018-11-12T05:30:56.592Z,27.87
2018-11-12T05:33:24.977Z,36.77
2018-11-12T05:35:53.407Z,37.47
2018-11-12T05:38:21.852Z,36.93
2018-11-12T05:40:50.185Z,36.90
2018-11-12T05:43:18.605Z,34.87
2018-11-12T05:45:46.986Z,25.70
2018-11-12T05:48:15.385Z,37.00
2018-11-12T05:50:43.764Z,36.30
2018-11-12T05:53:12.158Z,30.83
2018-11-12T05:55:40.536Z,33.93
2018-11-12T05:58:08.934Z,35.23
2018-11-12T06:00:37.950Z,30.10
2018-11-12T06:03:06.554Z,25.10
2018-11-12T06:05:35.385Z,33.07
2018-11-12T06:08:03.999Z,35.83
2018-11-12T06:10:33.173Z,33.17
2018-11-12T06:13:01.574Z,32.40
2018-11-12T06:15:30.020Z,41.20
2018-11-12T06:17:58.409Z,36.53
2018-11-12T06:20:28.837Z,38.23
2018-11-12T06:22:57.262Z,40.37
2018-11-12T06:25:27.817Z,43.10
2018-11-12T06:27:56.354Z,40.00
2018-11-12T06:30:27.373Z,39.37
2018-11-12T06:32:55.770Z,34.20
2018-11-12T06:35:24.157Z,34.50
2018-11-12T06:37:53.161Z,31.77
2018-11-12T06:40:22.642Z,40.60
2018-11-12T06:42:51.349Z,32.83
2018-11-12T06:45:23.045Z,33.23
2018-11-12T06:47:52.307Z,30.77
2018-11-12T06:50:22.090Z,32.63
2018-11-12T06:52:50.631Z,36.57
2018-11-12T06:55:19.573Z,37.97
2018-11-12T06:57:48.491Z,34.43
2018-11-12T07:00:19.221Z,28.10
2018-11-12T07:02:47.618Z,34.90
2018-11-12T07:05:16.262Z,34.23
2018-11-12T07:07:44.678Z,32.67
2018-11-12T07:10:14.553Z,30.90
2018-11-12T07:12:43.826Z,36.73
2018-11-12T07:15:16.751Z,38.17
2018-11-12T07:17:45.245Z,32.20
2018-11-12T07:20:15.034Z,30.07
2018-11-12T07:22:43.654Z,32.20
2018-11-12T07:25:12.982Z,35.80
2018-11-12T07:27:41.352Z,28.77
2018-11-12T07:30:13.058Z,45.13
2018-11-12T07:32:41.455Z,34.70
2018-11-12T07:35:11.467Z,32.43
2018-11-12T07:37:40.079Z,39.57
2018-11-12T07:40:09.331Z,56.27
2018-11-12T07:42:38.257Z,32.50
2018-11-12T07:45:08.307Z,46.67
2018-11-12T07:47:36.861Z,43.87
2018-11-12T07:50:07.711Z,61.20
2018-11-12T07:52:36.351Z,42.80
2018-11-12T07:55:05.701Z,42.53
2018-11-12T07:57:34.123Z,46.40
2018-11-12T08:00:02.513Z,45.33
2018-11-12T08:02:30.924Z,52.77
2018-11-12T08:04:59.327Z,47.60
2018-11-12T08:07:27.710Z,33.33
2018-11-12T08:09:56.106Z,42.30
2018-11-12T08:12:24.477Z,40.80
2018-11-12T08:14:52.906Z,36.00
2018-11-12T08:17:21.285Z,43.30
2018-11-12T08:19:49.701Z,35.13
2018-11-12T08:22:18.079Z,30.50
2018-11-12T08:24:46.515Z,37.00
2018-11-12T08:27:14.915Z,36.77
2018-11-12T08:29:43.361Z,32.93
2018-11-12T08:32:11.719Z,35.40
2018-11-12T08:34:40.118Z,31.60
2018-11-12T08:37:08.508Z,34.07
2018-11-12T08:39:37.072Z,32.63
2018-11-12T08:42:05.522Z,30.53
2018-11-12T08:44:33.917Z,37.47
2018-11-12T08:47:02.290Z,36.17
2018-11-12T08:49:30.772Z,38.57
2018-11-12T08:51:59.120Z,36.30
2018-11-12T08:54:27.558Z,39.50
2018-11-12T08:56:55.922Z,48.40
2018-11-12T08:59:24.408Z,36.43
2018-11-12T09:01:52.759Z,39.13
2018-11-12T09:04:21.162Z,34.30
2018-11-12T09:06:49.562Z,36.83
2018-11-12T09:09:18.016Z,38.50
2018-11-12T09:11:46.388Z,35.73
2018-11-12T09:14:14.789Z,39.37
2018-11-12T09:16:43.170Z,38.93
2018-11-12T09:19:11.566Z,38.87
2018-11-12T09:21:39.937Z,34.27
2018-11-12T09:24:08.333Z,28.17
2018-11-12T09:26:36.735Z,38.77
2018-11-12T09:29:05.261Z,46.73
2018-11-12T09:31:33.777Z,33.80
2018-11-12T09:34:02.076Z,35.77
2018-11-12T09:36:30.460Z,35.23
2018-11-12T09:41:27.264Z,37.23
2018-11-12T09:43:55.675Z,33.47
2018-11-12T09:46:24.058Z,29.47
2018-11-12T09:48:52.528Z,31.90
2018-11-12T09:51:21.450Z,33.97
2018-11-12T09:53:49.961Z,32.67
2018-11-12T09:56:18.299Z,31.43
2018-11-12T09:58:46.698Z,30.50
2018-11-12T10:01:15.237Z,32.27
2018-11-12T10:03:44.888Z,27.20
2018-11-12T10:06:13.448Z,31.17
2018-11-12T10:08:42.685Z,32.77
2018-11-12T10:11:11.320Z,34.13
2018-11-12T10:13:40.035Z,31.20
2018-11-12T10:16:09.021Z,30.40
2018-11-12T10:18:34.485Z,28.33
2018-11-12T10:21:02.910Z,40.83
2018-11-12T10:23:31.287Z,35.00
2018-11-12T10:25:59.677Z,32.00
2018-11-12T10:28:28.041Z,27.53
2018-11-12T10:30:56.443Z,33.07
2018-11-12T10:33:24.805Z,34.63
2018-11-12T10:35:53.197Z,34.17
2018-11-12T10:38:21.590Z,28.57
2018-11-12T10:40:50.051Z,33.03
2018-11-12T10:43:18.443Z,30.80
2018-11-12T10:45:46.849Z,33.10
2018-11-12T10:48:15.237Z,32.03
2018-11-12T10:50:43.645Z,36.67
2018-11-12T10:53:12.017Z,28.63
2018-11-12T10:55:40.466Z,27.90
2018-11-12T10:58:08.830Z,25.70
2018-11-12T11:00:42.432Z,34.40
2018-11-12T11:04:19.384Z,35.00
2018-11-12T11:06:47.791Z,29.20
2018-11-12T11:09:16.166Z,31.63
2018-11-12T11:11:44.611Z,29.83
2018-11-12T11:14:13.011Z,33.63
2018-11-12T11:16:41.414Z,30.80
2018-11-12T11:19:09.793Z,44.73
2018-11-12T11:21:38.512Z,30.23
2018-11-12T11:24:06.897Z,29.63
2018-11-12T11:26:35.312Z,32.67
2018-11-12T11:29:03.698Z,33.63
2018-11-12T11:31:32.094Z,32.57
2018-11-12T11:34:00.473Z,30.93
2018-11-12T11:36:28.883Z,28.30
2018-11-12T11:38:57.279Z,33.97
2018-11-12T11:41:25.707Z,37.13
2018-11-12T11:43:54.113Z,31.57
2018-11-12T11:46:22.518Z,30.83
2018-11-12T11:48:51.191Z,26.70
2018-11-12T11:51:19.611Z,33.03
2018-11-12T11:53:47.995Z,28.47
2018-11-12T11:56:16.503Z,28.23
2018-11-12T11:58:44.914Z,29.50
2018-11-12T12:01:13.316Z,27.30
2018-11-12T12:03:41.689Z,23.27
2018-11-12T12:06:10.093Z,25.20
2018-11-12T12:08:38.527Z,23.43
2018-11-12T12:11:06.915Z,28.80
2018-11-12T12:13:35.301Z,24.60
2018-11-12T12:16:03.693Z,23.63
2018-11-12T12:18:32.110Z,23.77
2018-11-12T12:21:00.539Z,25.40
2018-11-12T12:23:28.893Z,25.70
2018-11-12T12:25:57.348Z,22.77
2018-11-12T12:28:25.697Z,23.87
2018-11-12T12:30:54.094Z,23.60
2018-11-12T12:33:22.506Z,23.57
2018-11-12T12:35:50.987Z,20.83
2018-11-12T12:38:19.299Z,22.80
2018-11-12T12:40:47.694Z,17.57
2018-11-12T12:43:16.089Z,21.27
2018-11-12T12:45:44.694Z,13.23
2018-11-12T12:48:12.974Z,22.20
2018-11-12T12:50:41.373Z,15.93
2018-11-12T12:53:09.766Z,23.63
2018-11-12T12:55:38.759Z,17.20
2018-11-12T12:58:07.138Z,18.17
2018-11-12T13:00:35.513Z,24.10
2018-11-12T13:03:03.914Z,20.10
2018-11-12T13:05:32.283Z,18.30
2018-11-12T13:08:00.708Z,18.10
2018-11-12T13:10:29.082Z,15.33
2018-11-12T13:12:57.492Z,15.30
2018-11-12T13:15:25.980Z,10.10
2018-11-12T13:17:54.379Z,11.90
2018-11-12T13:20:24.143Z,17.10
2018-11-12T13:22:52.514Z,15.77
2018-11-12T13:25:20.889Z,13.83
2018-11-12T13:27:49.550Z,14.90
2018-11-12T13:30:19.347Z,17.63
2018-11-12T13:32:48.059Z,12.43
2018-11-12T13:35:18.169Z,17.10
2018-11-12T13:37:46.571Z,15.83
2018-11-12T13:40:17.627Z,19.07
2018-11-12T13:42:49.658Z,15.80
2018-11-12T13:45:18.066Z,15.90
2018-11-12T13:47:46.829Z,14.63
2018-11-12T13:50:16.709Z,14.60
2018-11-12T13:52:45.482Z,13.30
2018-11-12T13:55:14.809Z,18.53
2018-11-12T13:57:43.226Z,15.43
2018-11-12T14:00:13.869Z,13.30
2018-11-12T14:02:43.046Z,15.83
2018-11-12T14:05:13.445Z,19.63
2018-11-12T14:07:42.362Z,19.37
2018-11-12T14:10:12.354Z,14.20
2018-11-12T14:12:41.275Z,10.30
2018-11-12T14:15:11.995Z,23.57
2018-11-12T14:17:40.897Z,17.17
2018-11-12T14:20:09.297Z,11.53
2018-11-12T14:22:38.287Z,12.77
2018-11-12T14:25:07.793Z,15.33
2018-11-12T14:27:36.233Z,11.93
2018-11-12T14:30:04.644Z,15.07
2018-11-12T14:32:33.430Z,12.97
2018-11-12T14:35:01.807Z,15.30
2018-11-12T14:37:30.210Z,20.23
2018-11-12T14:39:58.587Z,25.63
2018-11-12T14:42:27.015Z,21.53
2018-11-12T14:44:56.038Z,15.00
2018-11-12T14:47:24.429Z,13.40
2018-11-12T14:49:52.811Z,23.27
2018-11-12T14:52:21.396Z,14.00
2018-11-12T14:54:49.830Z,19.27
2018-11-12T14:57:18.201Z,22.60
2018-11-12T14:59:46.623Z,21.67
2018-11-12T15:02:15.076Z,14.97
2018-11-12T15:04:43.455Z,13.30
2018-11-12T15:07:11.830Z,15.67
2018-11-12T15:09:40.239Z,18.00
2018-11-12T15:12:08.609Z,17.80
2018-11-12T15:14:37.051Z,12.73
2018-11-12T15:17:05.458Z,13.23
2018-11-12T15:19:33.880Z,22.63
2018-11-12T15:22:02.437Z,17.53
2018-11-12T15:24:30.838Z,17.43
2018-11-12T15:26:59.218Z,16.67
2018-11-12T15:29:27.729Z,19.33
2018-11-12T15:31:56.041Z,17.10
2018-11-12T15:34:24.438Z,14.60
2018-11-12T15:36:52.960Z,16.13
2018-11-12T15:39:21.258Z,14.70
2018-11-12T15:41:49.655Z,16.27
2018-11-12T15:44:18.044Z,15.23
2018-11-12T15:46:46.487Z,14.20
2018-11-12T15:49:14.907Z,16.87
2018-11-12T15:51:43.285Z,16.87
2018-11-12T15:54:11.698Z,14.73
2018-11-12T15:56:40.078Z,18.50
2018-11-12T15:59:08.469Z,14.10
2018-11-12T16:01:36.847Z,15.27
2018-11-12T16:04:05.454Z,16.77
2018-11-12T16:06:33.899Z,19.43
2018-11-12T16:09:02.261Z,19.53
2018-11-12T16:11:30.636Z,16.53
2018-11-12T16:13:59.033Z,17.37
2018-11-12T16:16:27.414Z,23.40
2018-11-12T16:18:55.827Z,20.00
2018-11-12T16:21:24.202Z,20.53
2018-11-12T16:23:52.594Z,21.83
2018-11-12T16:26:21.015Z,19.23
2018-11-12T16:28:49.395Z,15.33
2018-11-12T16:31:17.794Z,18.13
2018-11-12T16:33:46.170Z,16.77
2018-11-12T16:36:14.563Z,28.87
2018-11-12T16:38:42.958Z,27.37
2018-11-12T16:41:11.371Z,26.97
2018-11-12T16:43:39.767Z,25.27
2018-11-12T16:46:08.262Z,20.47
2018-11-12T16:48:36.575Z,20.27
2018-11-12T16:51:04.983Z,34.20
2018-11-12T16:53:33.366Z,25.67
2018-11-12T16:56:01.767Z,25.03
2018-11-12T16:58:30.150Z,43.63
2018-11-12T17:00:58.555Z,21.80
2018-11-12T17:03:26.935Z,27.37
2018-11-12T17:05:55.333Z,32.50
2018-11-12T17:08:23.766Z,27.40
2018-11-12T17:10:52.166Z,19.60
2018-11-12T17:13:20.542Z,21.30
2018-11-12T17:15:48.942Z,17.27
2018-11-12T17:18:17.418Z,28.40
2018-11-12T17:20:45.825Z,25.37
2018-11-12T17:23:14.277Z,23.40
2018-11-12T17:25:42.678Z,23.33
2018-11-12T17:28:11.070Z,24.23
2018-11-12T17:30:39.464Z,23.37
2018-11-12T17:33:07.868Z,29.07
2018-11-12T17:35:36.271Z,24.23
2018-11-12T17:38:04.913Z,24.70
2018-11-12T17:40:33.323Z,25.90
2018-11-12T17:43:01.773Z,25.07
2018-11-12T17:45:30.159Z,30.30
2018-11-12T17:47:59.099Z,19.77
2018-11-12T17:50:27.527Z,22.13
2018-11-12T17:52:55.918Z,26.00
2018-11-12T17:55:24.360Z,22.03
2018-11-12T17:57:52.719Z,23.10
2018-11-12T18:00:23.270Z,16.20
2018-11-12T18:02:51.685Z,24.43
2018-11-12T18:05:20.100Z,29.93
2018-11-12T18:07:48.645Z,25.40
2018-11-12T18:10:17.778Z,24.70
2018-11-12T18:12:46.258Z,24.37
2018-11-12T18:15:16.066Z,23.13
2018-11-12T18:17:44.462Z,23.03
2018-11-12T18:20:16.531Z,26.77
2018-11-12T18:22:44.959Z,21.43
2018-11-12T18:25:13.757Z,26.63
2018-11-12T18:27:42.149Z,25.27
2018-11-12T18:30:14.253Z,30.67
2018-11-12T18:32:42.946Z,23.80
2018-11-12T18:35:11.446Z,25.80
2018-11-12T18:37:39.851Z,24.57
2018-11-12T18:40:10.221Z,23.27
2018-11-12T18:42:38.674Z,23.57
2018-11-12T18:45:09.444Z,19.70
2018-11-12T18:47:38.030Z,24.03
2018-11-12T18:50:08.486Z,24.20
2018-11-12T18:52:36.963Z,19.87
2018-11-12T18:55:06.622Z,28.83
2018-11-12T18:57:35.096Z,31.33
2018-11-12T19:00:04.010Z,31.87
2018-11-12T19:02:32.424Z,23.93
2018-11-12T19:05:00.853Z,27.53
2018-11-12T19:07:29.291Z,25.83
2018-11-12T19:09:57.701Z,25.30
2018-11-12T19:12:26.253Z,24.17
2018-11-12T19:14:54.674Z,23.80
2018-11-12T19:17:23.093Z,22.80
2018-11-12T19:19:51.474Z,24.33
2018-11-12T19:22:19.609Z,25.43
2018-11-12T19:24:48.013Z,19.47
2018-11-12T19:27:16.561Z,22.30
2018-11-12T19:29:44.911Z,23.90
2018-11-12T19:32:13.332Z,21.13
2018-11-12T19:34:41.716Z,21.67
2018-11-12T19:37:10.159Z,19.90
2018-11-12T19:39:38.530Z,21.37
2018-11-12T19:42:06.954Z,25.23
2018-11-12T19:44:35.347Z,19.60
2018-11-12T19:47:03.745Z,23.50
2018-11-12T19:49:32.128Z,21.93
2018-11-12T19:52:00.531Z,19.30
2018-11-12T19:54:28.938Z,34.53
2018-11-12T19:56:57.371Z,21.70
2018-11-12T19:59:25.746Z,23.43
2018-11-12T20:01:54.326Z,19.40
2018-11-12T20:04:22.731Z,19.27
2018-11-12T20:06:51.121Z,21.03
2018-11-12T20:09:19.682Z,18.57
2018-11-12T20:11:48.062Z,20.00
2018-11-12T20:14:16.553Z,15.40
2018-11-12T20:16:44.942Z,23.53
2018-11-12T20:19:13.505Z,16.57
2018-11-12T20:21:41.903Z,14.43
2018-11-12T20:24:10.313Z,20.07
2018-11-12T20:26:38.700Z,19.70
2018-11-12T20:29:07.125Z,20.77
2018-11-12T20:31:35.497Z,26.77
2018-11-12T20:34:03.947Z,27.60
2018-11-12T20:36:32.358Z,20.57
2018-11-12T20:39:00.820Z,22.83
2018-11-12T20:41:29.182Z,16.37
2018-11-12T20:43:57.618Z,17.33
2018-11-12T20:46:25.994Z,13.50
2018-11-12T20:48:54.434Z,19.63
2018-11-12T20:51:22.811Z,17.97
2018-11-12T20:53:51.230Z,14.33
2018-11-12T20:56:19.598Z,22.93
2018-11-12T20:58:48.019Z,16.67
2018-11-12T21:01:16.461Z,15.60
2018-11-12T21:03:44.862Z,16.03
2018-11-12T21:06:13.295Z,14.30
2018-11-12T21:08:41.702Z,16.17
2018-11-12T21:11:10.082Z,19.80
2018-11-12T21:13:38.482Z,14.77
2018-11-12T21:16:06.875Z,17.63
2018-11-12T21:18:35.298Z,17.40
2018-11-12T21:21:03.666Z,18.83
2018-11-12T21:23:32.054Z,13.60
2018-11-12T21:26:00.461Z,20.73
2018-11-12T21:28:28.830Z,20.00
2018-11-12T21:30:57.338Z,18.30
2018-11-12T21:33:25.719Z,14.27
2018-11-12T21:35:54.123Z,16.77
2018-11-12T21:38:22.514Z,15.53
2018-11-12T21:40:50.913Z,20.37
2018-11-12T21:43:19.492Z,16.30
2018-11-12T21:45:47.743Z,20.00
2018-11-12T21:48:16.128Z,12.63
2018-11-12T21:50:44.557Z,12.90
2018-11-12T21:53:12.931Z,12.20
2018-11-12T21:55:41.504Z,28.03
2018-11-12T21:58:09.886Z,14.40
2018-11-12T22:00:38.298Z,17.80
2018-11-12T22:03:06.706Z,14.97
2018-11-12T22:05:35.153Z,22.47
2018-11-12T22:08:04.342Z,11.37
2018-11-12T22:10:32.800Z,24.53
2018-11-12T22:13:01.173Z,16.00
2018-11-12T22:15:29.571Z,11.57
2018-11-12T22:17:57.949Z,14.97
2018-11-12T22:20:27.586Z,14.50
2018-11-12T22:22:55.954Z,12.13
2018-11-12T22:25:24.655Z,12.60
2018-11-12T22:27:53.585Z,11.77
2018-11-12T22:30:23.152Z,15.73
2018-11-12T22:32:52.430Z,13.00
2018-11-12T22:35:20.829Z,13.13
2018-11-12T22:37:49.489Z,12.43
2018-11-12T22:40:18.623Z,13.00
2018-11-12T22:42:48.306Z,23.97
2018-11-12T22:45:17.930Z,9.80
2018-11-12T22:47:46.907Z,12.23
2018-11-12T22:50:15.322Z,10.60
2018-11-12T22:52:44.373Z,10.60
2018-11-12T22:55:14.009Z,10.67
2018-11-12T22:57:42.379Z,8.70
2018-11-12T23:00:19.411Z,11.67
2018-11-12T23:02:48.444Z,12.57
2018-11-12T23:05:17.462Z,12.50
2018-11-12T23:07:46.737Z,14.43
2018-11-12T23:10:15.655Z,8.87
2018-11-12T23:12:44.152Z,9.03
2018-11-12T23:15:13.063Z,15.60
2018-11-12T23:17:41.590Z,10.90
2018-11-12T23:20:12.961Z,12.33
2018-11-12T23:22:42.134Z,15.90
2018-11-12T23:25:10.954Z,12.27
2018-11-12T23:27:39.717Z,13.40
2018-11-12T23:30:10.055Z,11.20
2018-11-12T23:32:38.437Z,10.50
2018-11-12T23:35:08.885Z,10.37
2018-11-12T23:37:37.283Z,14.20
2018-11-12T23:40:06.525Z,13.37
2018-11-12T23:42:34.937Z,9.40
2018-11-12T23:45:03.322Z,12.73
2018-11-12T23:47:31.732Z,9.73
2018-11-12T23:50:00.102Z,11.30
2018-11-12T23:52:28.493Z,15.80
2018-11-12T23:54:57.068Z,13.17
2018-11-12T23:57:25.517Z,9.53
2018-11-12T23:59:54.046Z,11.83
